sensor_id;sensor_type;location;lat;lon;timestamp;P1;durP1;ratioP1;P2;durP2;ratioP2
41305;SDS011;27051;50.376;19.152;2022-10-16T00:01:24;26.50;;;13.98;;
41305;SDS011;27051;50.376;19.152;2022-10-16T00:03:54;22.48;;;12.95;;
41305;SDS011;27051;50.376;19.152;2022-10-16T00:06:22;27.00;;;13.43;;
41305;SDS011;27051;50.376;19.152;2022-10-16T00:08:52;22.10;;;12.47;;
41305;SDS011;27051;50.376;19.152;2022-10-16T00:11:21;25.62;;;12.65;;
41305;SDS011;27051;50.376;19.152;2022-10-16T00:13:51;23.20;;;12.80;;
41305;SDS011;27051;50.376;19.152;2022-10-16T00:16:22;22.95;;;12.45;;
41305;SDS011;27051;50.376;19.152;2022-10-16T00:18:49;24.43;;;13.38;;
41305;SDS011;27051;50.376;19.152;2022-10-16T00:21:17;26.55;;;13.68;;
41305;SDS011;27051;50.376;19.152;2022-10-16T00:23:55;24.12;;;13.50;;
41305;SDS011;27051;50.376;19.152;2022-10-16T00:26:25;24.57;;;13.05;;
41305;SDS011;27051;50.376;19.152;2022-10-16T00:28:54;25.32;;;13.38;;
41305;SDS011;27051;50.376;19.152;2022-10-16T00:31:21;21.17;;;11.65;;
41305;SDS011;27051;50.376;19.152;2022-10-16T00:33:49;24.32;;;12.45;;
41305;SDS011;27051;50.376;19.152;2022-10-16T00:36:18;21.10;;;12.23;;
41305;SDS011;27051;50.376;19.152;2022-10-16T00:38:49;22.13;;;13.22;;
41305;SDS011;27051;50.376;19.152;2022-10-16T00:41:24;24.90;;;12.63;;
41305;SDS011;27051;50.376;19.152;2022-10-16T00:43:53;24.77;;;13.15;;
41305;SDS011;27051;50.376;19.152;2022-10-16T00:46:37;24.65;;;13.60;;
41305;SDS011;27051;50.376;19.152;2022-10-16T00:49:11;24.57;;;13.28;;
41305;SDS011;27051;50.376;19.152;2022-10-16T00:51:42;24.07;;;13.43;;
41305;SDS011;27051;50.376;19.152;2022-10-16T00:54:25;28.30;;;14.15;;
41305;SDS011;27051;50.376;19.152;2022-10-16T00:56:57;32.40;;;18.15;;
41305;SDS011;27051;50.376;19.152;2022-10-16T00:59:38;28.95;;;15.15;;
41305;SDS011;27051;50.376;19.152;2022-10-16T01:02:06;23.52;;;13.13;;
41305;SDS011;27051;50.376;19.152;2022-10-16T01:04:40;26.35;;;14.58;;
41305;SDS011;27051;50.376;19.152;2022-10-16T01:10:17;28.15;;;14.03;;
41305;SDS011;27051;50.376;19.152;2022-10-16T01:12:59;25.77;;;14.20;;
41305;SDS011;27051;50.376;19.152;2022-10-16T01:18:25;21.17;;;12.65;;
41305;SDS011;27051;50.376;19.152;2022-10-16T01:21:17;22.45;;;13.20;;
41305;SDS011;27051;50.376;19.152;2022-10-16T01:24:02;24.67;;;13.93;;
41305;SDS011;27051;50.376;19.152;2022-10-16T01:26:50;29.57;;;14.85;;
41305;SDS011;27051;50.376;19.152;2022-10-16T01:32:41;24.27;;;14.40;;
41305;SDS011;27051;50.376;19.152;2022-10-16T01:35:21;25.90;;;15.10;;
41305;SDS011;27051;50.376;19.152;2022-10-16T01:40:37;24.72;;;14.75;;
41305;SDS011;27051;50.376;19.152;2022-10-16T01:43:12;26.77;;;13.90;;
41305;SDS011;27051;50.376;19.152;2022-10-16T01:45:42;23.15;;;13.88;;
41305;SDS011;27051;50.376;19.152;2022-10-16T01:48:16;25.27;;;14.98;;
41305;SDS011;27051;50.376;19.152;2022-10-16T01:50:44;24.65;;;14.40;;
41305;SDS011;27051;50.376;19.152;2022-10-16T01:53:18;23.27;;;12.80;;
41305;SDS011;27051;50.376;19.152;2022-10-16T01:55:47;22.30;;;13.32;;
41305;SDS011;27051;50.376;19.152;2022-10-16T01:58:16;23.85;;;12.65;;
41305;SDS011;27051;50.376;19.152;2022-10-16T02:00:43;22.27;;;13.55;;
41305;SDS011;27051;50.376;19.152;2022-10-16T02:03:13;24.52;;;13.98;;
41305;SDS011;27051;50.376;19.152;2022-10-16T02:05:47;23.00;;;13.70;;
41305;SDS011;27051;50.376;19.152;2022-10-16T02:08:18;26.50;;;15.20;;
41305;SDS011;27051;50.376;19.152;2022-10-16T02:10:46;24.60;;;14.70;;
41305;SDS011;27051;50.376;19.152;2022-10-16T02:13:14;29.10;;;14.85;;
41305;SDS011;27051;50.376;19.152;2022-10-16T02:16:00;23.05;;;13.15;;
41305;SDS011;27051;50.376;19.152;2022-10-16T02:18:27;28.47;;;15.88;;
41305;SDS011;27051;50.376;19.152;2022-10-16T02:26:30;25.80;;;15.58;;
41305;SDS011;27051;50.376;19.152;2022-10-16T02:29:04;27.25;;;14.07;;
41305;SDS011;27051;50.376;19.152;2022-10-16T02:34:05;27.15;;;14.98;;
41305;SDS011;27051;50.376;19.152;2022-10-16T02:36:33;30.62;;;16.45;;
41305;SDS011;27051;50.376;19.152;2022-10-16T02:39:02;28.35;;;14.47;;
41305;SDS011;27051;50.376;19.152;2022-10-16T02:41:30;25.20;;;13.98;;
41305;SDS011;27051;50.376;19.152;2022-10-16T02:43:58;25.02;;;14.68;;
41305;SDS011;27051;50.376;19.152;2022-10-16T02:46:25;35.23;;;15.75;;
41305;SDS011;27051;50.376;19.152;2022-10-16T02:48:52;29.80;;;15.50;;
41305;SDS011;27051;50.376;19.152;2022-10-16T02:51:18;27.65;;;16.17;;
41305;SDS011;27051;50.376;19.152;2022-10-16T02:53:45;29.00;;;16.00;;
41305;SDS011;27051;50.376;19.152;2022-10-16T02:56:11;27.02;;;14.58;;
41305;SDS011;27051;50.376;19.152;2022-10-16T02:58:40;28.27;;;15.18;;
41305;SDS011;27051;50.376;19.152;2022-10-16T03:01:06;24.80;;;15.15;;
41305;SDS011;27051;50.376;19.152;2022-10-16T03:03:33;32.20;;;17.27;;
41305;SDS011;27051;50.376;19.152;2022-10-16T03:06:00;30.30;;;15.72;;
41305;SDS011;27051;50.376;19.152;2022-10-16T03:08:26;34.88;;;16.40;;
41305;SDS011;27051;50.376;19.152;2022-10-16T03:10:53;28.60;;;16.12;;
41305;SDS011;27051;50.376;19.152;2022-10-16T03:13:20;29.37;;;16.85;;
41305;SDS011;27051;50.376;19.152;2022-10-16T03:15:46;28.98;;;15.15;;
41305;SDS011;27051;50.376;19.152;2022-10-16T03:18:14;29.45;;;15.45;;
41305;SDS011;27051;50.376;19.152;2022-10-16T03:20:42;26.42;;;16.10;;
41305;SDS011;27051;50.376;19.152;2022-10-16T03:23:09;30.10;;;16.75;;
41305;SDS011;27051;50.376;19.152;2022-10-16T03:25:36;31.25;;;17.27;;
41305;SDS011;27051;50.376;19.152;2022-10-16T03:28:03;27.58;;;16.75;;
41305;SDS011;27051;50.376;19.152;2022-10-16T03:30:30;26.85;;;15.40;;
41305;SDS011;27051;50.376;19.152;2022-10-16T03:32:58;27.02;;;15.08;;
41305;SDS011;27051;50.376;19.152;2022-10-16T03:35:25;29.18;;;15.48;;
41305;SDS011;27051;50.376;19.152;2022-10-16T03:37:51;25.10;;;14.68;;
41305;SDS011;27051;50.376;19.152;2022-10-16T03:40:19;27.07;;;15.18;;
41305;SDS011;27051;50.376;19.152;2022-10-16T03:42:45;28.02;;;14.38;;
41305;SDS011;27051;50.376;19.152;2022-10-16T03:45:12;26.10;;;14.00;;
41305;SDS011;27051;50.376;19.152;2022-10-16T03:47:38;31.17;;;14.87;;
41305;SDS011;27051;50.376;19.152;2022-10-16T03:50:06;25.08;;;13.80;;
41305;SDS011;27051;50.376;19.152;2022-10-16T03:52:33;27.32;;;14.78;;
41305;SDS011;27051;50.376;19.152;2022-10-16T03:55:00;25.43;;;15.35;;
41305;SDS011;27051;50.376;19.152;2022-10-16T03:57:27;24.32;;;15.03;;
41305;SDS011;27051;50.376;19.152;2022-10-16T03:59:53;24.40;;;14.90;;
41305;SDS011;27051;50.376;19.152;2022-10-16T04:02:20;26.17;;;14.40;;
41305;SDS011;27051;50.376;19.152;2022-10-16T04:04:47;26.80;;;14.38;;
41305;SDS011;27051;50.376;19.152;2022-10-16T04:07:13;27.20;;;15.88;;
41305;SDS011;27051;50.376;19.152;2022-10-16T04:09:40;25.12;;;14.47;;
41305;SDS011;27051;50.376;19.152;2022-10-16T04:12:07;27.48;;;16.00;;
41305;SDS011;27051;50.376;19.152;2022-10-16T04:14:34;26.20;;;15.68;;
41305;SDS011;27051;50.376;19.152;2022-10-16T04:17:00;29.95;;;15.58;;
41305;SDS011;27051;50.376;19.152;2022-10-16T04:19:27;27.30;;;15.95;;
41305;SDS011;27051;50.376;19.152;2022-10-16T04:21:54;26.97;;;16.93;;
41305;SDS011;27051;50.376;19.152;2022-10-16T04:24:20;32.70;;;18.12;;
41305;SDS011;27051;50.376;19.152;2022-10-16T04:26:47;46.58;;;25.32;;
41305;SDS011;27051;50.376;19.152;2022-10-16T04:29:14;47.10;;;26.17;;
41305;SDS011;27051;50.376;19.152;2022-10-16T04:31:41;43.05;;;23.83;;
41305;SDS011;27051;50.376;19.152;2022-10-16T04:34:08;39.23;;;21.62;;
41305;SDS011;27051;50.376;19.152;2022-10-16T04:36:35;34.03;;;19.98;;
41305;SDS011;27051;50.376;19.152;2022-10-16T04:39:02;33.80;;;17.80;;
41305;SDS011;27051;50.376;19.152;2022-10-16T04:41:29;33.65;;;18.15;;
41305;SDS011;27051;50.376;19.152;2022-10-16T04:43:55;34.03;;;18.05;;
41305;SDS011;27051;50.376;19.152;2022-10-16T04:46:22;29.02;;;16.23;;
41305;SDS011;27051;50.376;19.152;2022-10-16T04:48:48;31.77;;;17.67;;
41305;SDS011;27051;50.376;19.152;2022-10-16T04:51:15;34.08;;;19.77;;
41305;SDS011;27051;50.376;19.152;2022-10-16T04:53:42;36.50;;;20.77;;
41305;SDS011;27051;50.376;19.152;2022-10-16T04:56:08;41.65;;;21.65;;
41305;SDS011;27051;50.376;19.152;2022-10-16T04:58:35;39.33;;;22.02;;
41305;SDS011;27051;50.376;19.152;2022-10-16T05:01:02;37.30;;;22.22;;
41305;SDS011;27051;50.376;19.152;2022-10-16T05:03:29;36.85;;;20.68;;
41305;SDS011;27051;50.376;19.152;2022-10-16T05:05:55;31.33;;;18.15;;
41305;SDS011;27051;50.376;19.152;2022-10-16T05:08:22;31.50;;;16.02;;
41305;SDS011;27051;50.376;19.152;2022-10-16T05:10:49;35.28;;;18.82;;
41305;SDS011;27051;50.376;19.152;2022-10-16T05:13:15;36.08;;;21.20;;
41305;SDS011;27051;50.376;19.152;2022-10-16T05:15:46;33.10;;;19.48;;
41305;SDS011;27051;50.376;19.152;2022-10-16T05:18:15;36.03;;;20.50;;
41305;SDS011;27051;50.376;19.152;2022-10-16T05:20:42;40.00;;;24.40;;
41305;SDS011;27051;50.376;19.152;2022-10-16T05:23:09;42.40;;;26.30;;
41305;SDS011;27051;50.376;19.152;2022-10-16T05:25:36;45.20;;;26.33;;
41305;SDS011;27051;50.376;19.152;2022-10-16T05:28:03;45.50;;;25.88;;
41305;SDS011;27051;50.376;19.152;2022-10-16T05:30:30;44.38;;;26.20;;
41305;SDS011;27051;50.376;19.152;2022-10-16T05:32:57;54.10;;;31.52;;
41305;SDS011;27051;50.376;19.152;2022-10-16T05:35:24;50.88;;;31.07;;
41305;SDS011;27051;50.376;19.152;2022-10-16T05:37:51;54.75;;;30.70;;
41305;SDS011;27051;50.376;19.152;2022-10-16T05:40:18;59.20;;;34.13;;
41305;SDS011;27051;50.376;19.152;2022-10-16T05:42:45;60.90;;;34.48;;
41305;SDS011;27051;50.376;19.152;2022-10-16T05:45:12;57.73;;;34.13;;
41305;SDS011;27051;50.376;19.152;2022-10-16T05:47:39;68.28;;;36.85;;
41305;SDS011;27051;50.376;19.152;2022-10-16T05:50:06;72.55;;;38.60;;
41305;SDS011;27051;50.376;19.152;2022-10-16T05:52:34;67.35;;;36.25;;
41305;SDS011;27051;50.376;19.152;2022-10-16T05:55:01;79.80;;;40.23;;
41305;SDS011;27051;50.376;19.152;2022-10-16T05:57:27;73.72;;;38.53;;
41305;SDS011;27051;50.376;19.152;2022-10-16T05:59:54;78.70;;;39.18;;
41305;SDS011;27051;50.376;19.152;2022-10-16T06:02:21;67.40;;;35.65;;
41305;SDS011;27051;50.376;19.152;2022-10-16T06:04:47;61.50;;;34.10;;
41305;SDS011;27051;50.376;19.152;2022-10-16T06:07:14;63.75;;;33.23;;
41305;SDS011;27051;50.376;19.152;2022-10-16T06:09:41;61.77;;;31.68;;
41305;SDS011;27051;50.376;19.152;2022-10-16T06:12:07;61.50;;;32.35;;
41305;SDS011;27051;50.376;19.152;2022-10-16T06:14:34;58.25;;;31.05;;
41305;SDS011;27051;50.376;19.152;2022-10-16T06:17:00;54.08;;;29.48;;
41305;SDS011;27051;50.376;19.152;2022-10-16T06:19:27;43.38;;;26.57;;
41305;SDS011;27051;50.376;19.152;2022-10-16T06:21:54;39.42;;;24.32;;
41305;SDS011;27051;50.376;19.152;2022-10-16T06:24:20;32.13;;;21.33;;
41305;SDS011;27051;50.376;19.152;2022-10-16T06:26:47;32.50;;;20.90;;
41305;SDS011;27051;50.376;19.152;2022-10-16T06:29:14;31.62;;;19.27;;
41305;SDS011;27051;50.376;19.152;2022-10-16T06:31:40;30.77;;;19.10;;
41305;SDS011;27051;50.376;19.152;2022-10-16T06:34:10;32.73;;;21.07;;
41305;SDS011;27051;50.376;19.152;2022-10-16T06:36:37;32.75;;;23.30;;
41305;SDS011;27051;50.376;19.152;2022-10-16T06:39:05;92.33;;;39.85;;
41305;SDS011;27051;50.376;19.152;2022-10-16T06:41:32;69.95;;;32.20;;
41305;SDS011;27051;50.376;19.152;2022-10-16T06:44:00;65.25;;;28.75;;
41305;SDS011;27051;50.376;19.152;2022-10-16T06:46:27;40.92;;;21.68;;
41305;SDS011;27051;50.376;19.152;2022-10-16T06:48:54;33.98;;;19.85;;
41305;SDS011;27051;50.376;19.152;2022-10-16T06:51:21;28.42;;;18.20;;
41305;SDS011;27051;50.376;19.152;2022-10-16T06:53:50;29.05;;;17.75;;
41305;SDS011;27051;50.376;19.152;2022-10-16T06:56:21;31.20;;;17.92;;
41305;SDS011;27051;50.376;19.152;2022-10-16T06:58:50;30.88;;;18.75;;
41305;SDS011;27051;50.376;19.152;2022-10-16T07:01:20;30.70;;;17.92;;
41305;SDS011;27051;50.376;19.152;2022-10-16T07:03:49;32.67;;;19.75;;
41305;SDS011;27051;50.376;19.152;2022-10-16T07:06:18;34.15;;;19.02;;
41305;SDS011;27051;50.376;19.152;2022-10-16T07:08:47;28.00;;;16.15;;
41305;SDS011;27051;50.376;19.152;2022-10-16T07:11:15;34.90;;;19.67;;
41305;SDS011;27051;50.376;19.152;2022-10-16T07:13:46;29.90;;;16.97;;
41305;SDS011;27051;50.376;19.152;2022-10-16T07:16:15;28.85;;;18.42;;
41305;SDS011;27051;50.376;19.152;2022-10-16T07:18:45;30.17;;;15.38;;
41305;SDS011;27051;50.376;19.152;2022-10-16T07:21:13;24.87;;;15.15;;
41305;SDS011;27051;50.376;19.152;2022-10-16T07:23:50;34.40;;;18.35;;
41305;SDS011;27051;50.376;19.152;2022-10-16T07:26:20;37.53;;;21.12;;
41305;SDS011;27051;50.376;19.152;2022-10-16T07:28:49;33.48;;;20.77;;
41305;SDS011;27051;50.376;19.152;2022-10-16T07:31:17;37.55;;;22.52;;
41305;SDS011;27051;50.376;19.152;2022-10-16T07:33:46;31.60;;;20.15;;
41305;SDS011;27051;50.376;19.152;2022-10-16T07:36:14;25.27;;;16.07;;
41305;SDS011;27051;50.376;19.152;2022-10-16T07:38:43;33.15;;;20.12;;
41305;SDS011;27051;50.376;19.152;2022-10-16T07:41:12;24.60;;;15.72;;
41305;SDS011;27051;50.376;19.152;2022-10-16T07:43:45;28.13;;;16.13;;
41305;SDS011;27051;50.376;19.152;2022-10-16T07:46:18;25.55;;;15.90;;
41305;SDS011;27051;50.376;19.152;2022-10-16T07:48:47;26.40;;;16.15;;
41305;SDS011;27051;50.376;19.152;2022-10-16T07:51:16;24.75;;;14.23;;
41305;SDS011;27051;50.376;19.152;2022-10-16T07:53:45;22.75;;;14.03;;
41305;SDS011;27051;50.376;19.152;2022-10-16T07:56:13;19.77;;;12.10;;
41305;SDS011;27051;50.376;19.152;2022-10-16T07:58:41;19.10;;;11.50;;
41305;SDS011;27051;50.376;19.152;2022-10-16T08:01:09;20.15;;;10.95;;
41305;SDS011;27051;50.376;19.152;2022-10-16T08:03:41;18.55;;;10.18;;
41305;SDS011;27051;50.376;19.152;2022-10-16T08:06:09;21.67;;;10.60;;
41305;SDS011;27051;50.376;19.152;2022-10-16T08:08:36;18.02;;;9.90;;
41305;SDS011;27051;50.376;19.152;2022-10-16T08:11:03;16.05;;;9.48;;
41305;SDS011;27051;50.376;19.152;2022-10-16T08:13:31;17.42;;;9.83;;
41305;SDS011;27051;50.376;19.152;2022-10-16T08:15:58;22.48;;;9.60;;
41305;SDS011;27051;50.376;19.152;2022-10-16T08:18:25;17.42;;;9.58;;
41305;SDS011;27051;50.376;19.152;2022-10-16T08:20:56;18.45;;;9.60;;
41305;SDS011;27051;50.376;19.152;2022-10-16T08:23:24;16.90;;;9.48;;
41305;SDS011;27051;50.376;19.152;2022-10-16T08:25:52;16.48;;;8.43;;
41305;SDS011;27051;50.376;19.152;2022-10-16T08:28:21;16.23;;;9.10;;
41305;SDS011;27051;50.376;19.152;2022-10-16T08:30:49;17.98;;;9.35;;
41305;SDS011;27051;50.376;19.152;2022-10-16T08:33:15;16.85;;;10.03;;
41305;SDS011;27051;50.376;19.152;2022-10-16T08:35:42;12.75;;;7.97;;
41305;SDS011;27051;50.376;19.152;2022-10-16T08:38:09;14.35;;;8.40;;
41305;SDS011;27051;50.376;19.152;2022-10-16T08:40:36;15.85;;;8.05;;
41305;SDS011;27051;50.376;19.152;2022-10-16T08:48:49;18.65;;;9.23;;
41305;SDS011;27051;50.376;19.152;2022-10-16T08:51:19;14.33;;;8.73;;
41305;SDS011;27051;50.376;19.152;2022-10-16T08:53:57;14.85;;;8.43;;
41305;SDS011;27051;50.376;19.152;2022-10-16T08:56:27;16.12;;;9.40;;
41305;SDS011;27051;50.376;19.152;2022-10-16T08:58:54;15.68;;;8.13;;
41305;SDS011;27051;50.376;19.152;2022-10-16T09:01:25;14.73;;;8.20;;
41305;SDS011;27051;50.376;19.152;2022-10-16T09:04:11;16.97;;;8.28;;
41305;SDS011;27051;50.376;19.152;2022-10-16T09:09:35;11.45;;;7.83;;
41305;SDS011;27051;50.376;19.152;2022-10-16T09:12:40;12.73;;;7.20;;
41305;SDS011;27051;50.376;19.152;2022-10-16T09:18:19;13.22;;;7.35;;
41305;SDS011;27051;50.376;19.152;2022-10-16T09:23:40;16.20;;;7.53;;
41305;SDS011;27051;50.376;19.152;2022-10-16T09:26:09;13.45;;;8.00;;
41305;SDS011;27051;50.376;19.152;2022-10-16T09:28:38;15.65;;;7.78;;
41305;SDS011;27051;50.376;19.152;2022-10-16T09:31:05;15.18;;;7.70;;
41305;SDS011;27051;50.376;19.152;2022-10-16T09:33:36;14.68;;;8.03;;
41305;SDS011;27051;50.376;19.152;2022-10-16T09:36:05;13.22;;;7.75;;
41305;SDS011;27051;50.376;19.152;2022-10-16T09:38:33;14.70;;;8.08;;
41305;SDS011;27051;50.376;19.152;2022-10-16T09:41:03;14.60;;;8.83;;
41305;SDS011;27051;50.376;19.152;2022-10-16T09:51:34;13.35;;;7.97;;
41305;SDS011;27051;50.376;19.152;2022-10-16T09:56:43;13.30;;;7.30;;
41305;SDS011;27051;50.376;19.152;2022-10-16T09:59:13;16.73;;;8.70;;
41305;SDS011;27051;50.376;19.152;2022-10-16T10:01:53;13.80;;;7.90;;
41305;SDS011;27051;50.376;19.152;2022-10-16T10:04:22;16.70;;;8.35;;
41305;SDS011;27051;50.376;19.152;2022-10-16T10:06:50;15.72;;;8.75;;
41305;SDS011;27051;50.376;19.152;2022-10-16T10:09:20;14.70;;;7.62;;
41305;SDS011;27051;50.376;19.152;2022-10-16T10:11:51;14.03;;;7.60;;
41305;SDS011;27051;50.376;19.152;2022-10-16T10:17:12;15.18;;;8.05;;
41305;SDS011;27051;50.376;19.152;2022-10-16T10:19:58;14.00;;;7.63;;
41305;SDS011;27051;50.376;19.152;2022-10-16T10:22:41;14.85;;;7.83;;
41305;SDS011;27051;50.376;19.152;2022-10-16T10:31:13;16.52;;;8.30;;
41305;SDS011;27051;50.376;19.152;2022-10-16T10:37:17;15.30;;;8.25;;
41305;SDS011;27051;50.376;19.152;2022-10-16T10:40:22;15.63;;;7.72;;
41305;SDS011;27051;50.376;19.152;2022-10-16T10:43:06;16.42;;;8.48;;
41305;SDS011;27051;50.376;19.152;2022-10-16T10:45:46;15.45;;;8.00;;
41305;SDS011;27051;50.376;19.152;2022-10-16T10:51:11;14.83;;;7.65;;
41305;SDS011;27051;50.376;19.152;2022-10-16T10:54:02;17.37;;;9.03;;
41305;SDS011;27051;50.376;19.152;2022-10-16T10:56:44;13.58;;;7.85;;
41305;SDS011;27051;50.376;19.152;2022-10-16T10:59:29;13.83;;;7.85;;
41305;SDS011;27051;50.376;19.152;2022-10-16T11:10:04;15.48;;;7.72;;
41305;SDS011;27051;50.376;19.152;2022-10-16T11:12:44;12.55;;;7.97;;
41305;SDS011;27051;50.376;19.152;2022-10-16T11:15:21;14.85;;;7.70;;
41305;SDS011;27051;50.376;19.152;2022-10-16T11:17:59;14.50;;;6.83;;
41305;SDS011;27051;50.376;19.152;2022-10-16T11:20:42;13.40;;;8.33;;
41305;SDS011;27051;50.376;19.152;2022-10-16T11:26:17;13.85;;;7.35;;
41305;SDS011;27051;50.376;19.152;2022-10-16T11:28:48;13.48;;;8.03;;
41305;SDS011;27051;50.376;19.152;2022-10-16T11:34:06;13.30;;;7.72;;
41305;SDS011;27051;50.376;19.152;2022-10-16T11:36:40;14.38;;;7.45;;
41305;SDS011;27051;50.376;19.152;2022-10-16T11:39:29;13.40;;;7.33;;
41305;SDS011;27051;50.376;19.152;2022-10-16T11:42:04;13.40;;;7.58;;
41305;SDS011;27051;50.376;19.152;2022-10-16T11:45:02;13.08;;;7.28;;
41305;SDS011;27051;50.376;19.152;2022-10-16T11:47:58;12.65;;;7.50;;
41305;SDS011;27051;50.376;19.152;2022-10-16T11:56:15;12.98;;;7.58;;
41305;SDS011;27051;50.376;19.152;2022-10-16T11:58:48;11.88;;;7.25;;
41305;SDS011;27051;50.376;19.152;2022-10-16T12:01:32;11.48;;;6.53;;
41305;SDS011;27051;50.376;19.152;2022-10-16T12:04:12;11.40;;;6.72;;
41305;SDS011;27051;50.376;19.152;2022-10-16T12:06:52;11.48;;;7.30;;
41305;SDS011;27051;50.376;19.152;2022-10-16T12:09:29;10.93;;;7.40;;
41305;SDS011;27051;50.376;19.152;2022-10-16T12:11:59;9.98;;;7.05;;
41305;SDS011;27051;50.376;19.152;2022-10-16T12:19:59;10.65;;;6.90;;
41305;SDS011;27051;50.376;19.152;2022-10-16T12:22:30;10.72;;;6.42;;
41305;SDS011;27051;50.376;19.152;2022-10-16T12:24:57;8.95;;;6.22;;
41305;SDS011;27051;50.376;19.152;2022-10-16T12:27:30;10.13;;;6.60;;
41305;SDS011;27051;50.376;19.152;2022-10-16T12:30:02;12.03;;;6.78;;
41305;SDS011;27051;50.376;19.152;2022-10-16T12:32:35;11.55;;;6.47;;
41305;SDS011;27051;50.376;19.152;2022-10-16T12:35:04;10.75;;;6.25;;
41305;SDS011;27051;50.376;19.152;2022-10-16T12:37:35;8.35;;;6.30;;
41305;SDS011;27051;50.376;19.152;2022-10-16T12:40:14;9.50;;;6.60;;
41305;SDS011;27051;50.376;19.152;2022-10-16T12:42:53;9.30;;;6.63;;
41305;SDS011;27051;50.376;19.152;2022-10-16T12:45:27;10.63;;;7.37;;
41305;SDS011;27051;50.376;19.152;2022-10-16T12:48:00;12.25;;;6.47;;
41305;SDS011;27051;50.376;19.152;2022-10-16T12:53:04;13.93;;;8.35;;
41305;SDS011;27051;50.376;19.152;2022-10-16T12:56:00;22.67;;;12.33;;
41305;SDS011;27051;50.376;19.152;2022-10-16T12:58:47;17.70;;;9.80;;
41305;SDS011;27051;50.376;19.152;2022-10-16T13:02:03;11.88;;;7.55;;
41305;SDS011;27051;50.376;19.152;2022-10-16T13:07:37;13.58;;;7.85;;
41305;SDS011;27051;50.376;19.152;2022-10-16T13:13:22;14.70;;;8.73;;
41305;SDS011;27051;50.376;19.152;2022-10-16T13:25:33;14.63;;;9.23;;
41305;SDS011;27051;50.376;19.152;2022-10-16T13:27:55;12.03;;;7.92;;
41305;SDS011;27051;50.376;19.152;2022-10-16T13:30:29;13.28;;;8.15;;
41305;SDS011;27051;50.376;19.152;2022-10-16T13:33:02;12.80;;;9.10;;
41305;SDS011;27051;50.376;19.152;2022-10-16T13:35:34;29.67;;;18.23;;
41305;SDS011;27051;50.376;19.152;2022-10-16T13:46:05;13.03;;;8.43;;
41305;SDS011;27051;50.376;19.152;2022-10-16T13:48:35;23.18;;;12.82;;
41305;SDS011;27051;50.376;19.152;2022-10-16T13:56:12;11.22;;;8.08;;
41305;SDS011;27051;50.376;19.152;2022-10-16T13:58:45;13.95;;;8.53;;
41305;SDS011;27051;50.376;19.152;2022-10-16T14:03:59;27.40;;;18.73;;
41305;SDS011;27051;50.376;19.152;2022-10-16T14:18:57;24.18;;;16.55;;
41305;SDS011;27051;50.376;19.152;2022-10-16T14:21:29;27.60;;;18.77;;
41305;SDS011;27051;50.376;19.152;2022-10-16T14:23:55;19.20;;;11.88;;
41305;SDS011;27051;50.376;19.152;2022-10-16T14:26:22;16.95;;;9.05;;
41305;SDS011;27051;50.376;19.152;2022-10-16T14:29:11;11.95;;;8.28;;
41305;SDS011;27051;50.376;19.152;2022-10-16T14:31:39;15.35;;;8.68;;
41305;SDS011;27051;50.376;19.152;2022-10-16T14:34:24;15.43;;;8.43;;
41305;SDS011;27051;50.376;19.152;2022-10-16T14:36:56;12.07;;;8.58;;
41305;SDS011;27051;50.376;19.152;2022-10-16T14:41:54;31.20;;;18.12;;
41305;SDS011;27051;50.376;19.152;2022-10-16T14:44:23;27.77;;;16.70;;
41305;SDS011;27051;50.376;19.152;2022-10-16T14:46:54;19.62;;;11.45;;
41305;SDS011;27051;50.376;19.152;2022-10-16T14:49:20;21.48;;;15.18;;
41305;SDS011;27051;50.376;19.152;2022-10-16T14:51:47;28.10;;;15.53;;
41305;SDS011;27051;50.376;19.152;2022-10-16T14:54:14;29.85;;;17.37;;
41305;SDS011;27051;50.376;19.152;2022-10-16T14:59:21;65.32;;;35.20;;
41305;SDS011;27051;50.376;19.152;2022-10-16T15:02:08;54.77;;;32.03;;
41305;SDS011;27051;50.376;19.152;2022-10-16T15:04:52;57.17;;;33.65;;
41305;SDS011;27051;50.376;19.152;2022-10-16T15:07:17;80.87;;;46.13;;
41305;SDS011;27051;50.376;19.152;2022-10-16T15:09:43;49.47;;;29.53;;
41305;SDS011;27051;50.376;19.152;2022-10-16T15:12:09;40.50;;;25.33;;
41305;SDS011;27051;50.376;19.152;2022-10-16T15:14:34;32.43;;;19.97;;
41305;SDS011;27051;50.376;19.152;2022-10-16T15:17:00;37.67;;;21.10;;
41305;SDS011;27051;50.376;19.152;2022-10-16T15:19:26;33.03;;;19.20;;
41305;SDS011;27051;50.376;19.152;2022-10-16T15:21:51;41.63;;;25.10;;
41305;SDS011;27051;50.376;19.152;2022-10-16T15:24:17;37.30;;;22.87;;
41305;SDS011;27051;50.376;19.152;2022-10-16T15:26:43;43.80;;;25.73;;
41305;SDS011;27051;50.376;19.152;2022-10-16T15:29:09;43.40;;;26.20;;
41305;SDS011;27051;50.376;19.152;2022-10-16T15:31:34;37.70;;;22.77;;
41305;SDS011;27051;50.376;19.152;2022-10-16T15:34:00;37.23;;;22.97;;
41305;SDS011;27051;50.376;19.152;2022-10-16T15:36:31;36.13;;;21.07;;
41305;SDS011;27051;50.376;19.152;2022-10-16T15:38:55;31.52;;;18.25;;
41305;SDS011;27051;50.376;19.152;2022-10-16T15:41:21;34.10;;;20.52;;
41305;SDS011;27051;50.376;19.152;2022-10-16T15:43:48;28.12;;;16.90;;
41305;SDS011;27051;50.376;19.152;2022-10-16T15:46:14;40.20;;;24.12;;
41305;SDS011;27051;50.376;19.152;2022-10-16T15:48:47;54.35;;;30.55;;
41305;SDS011;27051;50.376;19.152;2022-10-16T15:51:15;29.70;;;18.75;;
41305;SDS011;27051;50.376;19.152;2022-10-16T15:53:41;36.95;;;20.72;;
41305;SDS011;27051;50.376;19.152;2022-10-16T15:56:09;54.93;;;29.90;;
41305;SDS011;27051;50.376;19.152;2022-10-16T15:58:35;72.75;;;39.20;;
41305;SDS011;27051;50.376;19.152;2022-10-16T16:01:01;100.10;;;55.50;;
41305;SDS011;27051;50.376;19.152;2022-10-16T16:03:28;53.20;;;28.97;;
41305;SDS011;27051;50.376;19.152;2022-10-16T16:05:54;63.00;;;32.00;;
41305;SDS011;27051;50.376;19.152;2022-10-16T16:08:20;134.40;;;69.83;;
41305;SDS011;27051;50.376;19.152;2022-10-16T16:11:04;89.77;;;45.08;;
41305;SDS011;27051;50.376;19.152;2022-10-16T16:13:29;46.05;;;26.55;;
41305;SDS011;27051;50.376;19.152;2022-10-16T16:15:55;57.23;;;36.00;;
41305;SDS011;27051;50.376;19.152;2022-10-16T16:18:20;69.20;;;43.53;;
41305;SDS011;27051;50.376;19.152;2022-10-16T16:20:46;44.70;;;27.03;;
41305;SDS011;27051;50.376;19.152;2022-10-16T16:23:12;46.27;;;27.60;;
41305;SDS011;27051;50.376;19.152;2022-10-16T16:25:37;90.87;;;64.00;;
41305;SDS011;27051;50.376;19.152;2022-10-16T16:28:03;62.37;;;38.30;;
41305;SDS011;27051;50.376;19.152;2022-10-16T16:30:29;48.43;;;29.60;;
41305;SDS011;27051;50.376;19.152;2022-10-16T16:32:55;56.40;;;31.37;;
41305;SDS011;27051;50.376;19.152;2022-10-16T16:35:20;80.27;;;41.73;;
41305;SDS011;27051;50.376;19.152;2022-10-16T16:37:46;112.88;;;53.65;;
41305;SDS011;27051;50.376;19.152;2022-10-16T16:40:12;102.53;;;50.40;;
41305;SDS011;27051;50.376;19.152;2022-10-16T16:42:38;87.87;;;46.70;;
41305;SDS011;27051;50.376;19.152;2022-10-16T16:45:04;76.93;;;41.27;;
41305;SDS011;27051;50.376;19.152;2022-10-16T16:47:31;69.05;;;36.95;;
41305;SDS011;27051;50.376;19.152;2022-10-16T16:49:57;61.23;;;33.37;;